MUCM/CMW METAR and TAF weather

Enter ICAO airport designator
Station Type Date Time Source
MUCM METAR 2019/08/24 06:50 UTC NOAA

MUCM 240650Z 07005KT 9000 FEW020 BKN090 24/24 Q1015


Station Type Date Time Source
MUCM Decoded METAR 2019/08/24 06:50 UTC NOAA

Station name not available
Aug 24, 2019 - 02:50 AM EDT / 2019.08.24 0650 UTC
Wind: from the ENE (070 degrees) at 6 MPH (5 KT):0
Visibility: 5 mile(s):0
Sky conditions: mostly cloudy
Temperature: 75 F (24 C)
Dew Point: 75 F (24 C)
Relative Humidity: 100%
Pressure (altimeter): 29.97 in. Hg (1015 hPa)
ob: MUCM 240650Z 07005KT 9000 FEW020 BKN090 24/24 Q1015
cycle: 7

Station Type Date Time Source
MUCM TAF 2019/08/24 06:06 UTC NOAA

TAF MUCM 240500Z 2406/2506 VRB03KT 9000 SCT020
TEMPO 2418/2424 VRB10KT 3000 TSRA SCT018CB BKN020

Example: see airport list